createdAt,value
2022-12-31T00:01:42.547Z,6.63
2022-12-31T00:04:08.992Z,6.15
2022-12-31T00:06:36.219Z,6.82
2022-12-31T00:09:06.025Z,7.93
2022-12-31T00:13:59.570Z,9.57
2022-12-31T00:16:28.829Z,7.03
2022-12-31T00:18:59.099Z,8.20
2022-12-31T00:21:26.663Z,7.07
2022-12-31T00:23:53.107Z,7.40
2022-12-31T00:26:25.053Z,5.22
2022-12-31T00:28:52.906Z,6.53
2022-12-31T00:31:30.423Z,5.35
2022-12-31T00:33:57.568Z,6.78
2022-12-31T00:36:35.349Z,5.88
2022-12-31T00:39:03.410Z,6.15
2022-12-31T00:41:30.715Z,6.60
2022-12-31T00:43:57.534Z,6.28
2022-12-31T00:46:25.042Z,6.65
2022-12-31T00:48:51.673Z,6.90
2022-12-31T00:51:20.780Z,7.22
2022-12-31T00:53:47.566Z,6.80
2022-12-31T00:56:16.695Z,8.05
2022-12-31T00:58:43.460Z,7.10
2022-12-31T01:01:18.159Z,6.95
2022-12-31T01:03:44.926Z,6.03
2022-12-31T01:06:11.826Z,6.50
2022-12-31T01:08:38.464Z,6.32
2022-12-31T01:11:22.265Z,6.20
2022-12-31T01:13:53.389Z,6.20
2022-12-31T01:16:22.864Z,6.78
2022-12-31T01:18:49.561Z,7.63
2022-12-31T01:21:16.526Z,6.65
2022-12-31T01:23:43.301Z,7.35
2022-12-31T01:26:11.544Z,7.63
2022-12-31T01:28:38.255Z,6.90
2022-12-31T01:31:09.022Z,8.93
2022-12-31T01:33:35.570Z,5.22
2022-12-31T01:36:04.244Z,6.45
2022-12-31T01:38:30.641Z,7.13
2022-12-31T01:40:57.145Z,6.32
2022-12-31T01:43:23.551Z,8.50
2022-12-31T01:45:53.500Z,9.27
2022-12-31T01:48:23.639Z,5.97
2022-12-31T01:50:50.713Z,6.63
2022-12-31T01:53:18.214Z,4.68
2022-12-31T01:55:55.831Z,10.85
2022-12-31T01:58:30.521Z,8.93
2022-12-31T02:00:58.232Z,7.65
2022-12-31T02:03:25.659Z,9.48
2022-12-31T02:06:13.909Z,8.32
2022-12-31T02:08:42.291Z,5.47
2022-12-31T02:11:23.800Z,8.02
2022-12-31T02:13:55.025Z,7.18
2022-12-31T02:16:50.946Z,5.65
2022-12-31T02:19:29.499Z,6.13
2022-12-31T02:22:03.238Z,9.35
2022-12-31T02:24:29.674Z,8.55
2022-12-31T02:27:19.592Z,9.10
2022-12-31T02:30:15.345Z,8.32
2022-12-31T02:33:02.362Z,8.75
2022-12-31T02:35:36.948Z,9.80
2022-12-31T02:38:11.844Z,10.18
2022-12-31T02:40:38.705Z,6.43
2022-12-31T02:43:05.584Z,11.05
2022-12-31T02:45:44.730Z,7.80
2022-12-31T02:48:25.676Z,7.03
2022-12-31T02:51:12.185Z,13.38
2022-12-31T02:54:05.990Z,10.20
2022-12-31T02:56:42.355Z,9.70
2022-12-31T02:59:45.696Z,10.27
2022-12-31T03:02:16.001Z,7.20
2022-12-31T03:04:46.185Z,7.53
2022-12-31T03:09:40.706Z,6.57
2022-12-31T03:12:27.721Z,5.68
2022-12-31T03:14:54.209Z,8.25
2022-12-31T03:17:20.749Z,6.25
2022-12-31T03:20:06.137Z,7.95
2022-12-31T03:22:36.352Z,6.57
2022-12-31T03:25:25.528Z,6.68
2022-12-31T03:27:52.436Z,10.68
2022-12-31T03:30:20.065Z,8.05
2022-12-31T03:32:47.141Z,6.15
2022-12-31T03:35:15.267Z,6.47
2022-12-31T03:37:42.351Z,6.78
2022-12-31T03:40:10.741Z,7.45
2022-12-31T03:42:37.225Z,8.65
2022-12-31T03:45:04.727Z,5.75
2022-12-31T03:47:31.243Z,5.55
2022-12-31T03:49:57.752Z,5.50
2022-12-31T03:52:24.302Z,8.25
2022-12-31T03:54:50.772Z,7.18
2022-12-31T03:57:17.211Z,8.18
2022-12-31T03:59:43.704Z,6.50
2022-12-31T04:02:10.400Z,7.45
2022-12-31T04:04:36.950Z,5.40
2022-12-31T04:07:03.373Z,7.82
2022-12-31T04:09:29.821Z,6.35
2022-12-31T04:11:56.223Z,5.53
2022-12-31T04:14:22.680Z,7.55
2022-12-31T04:16:49.063Z,8.43
2022-12-31T04:19:15.608Z,6.68
2022-12-31T04:21:42.031Z,5.88
2022-12-31T04:24:08.597Z,6.82
2022-12-31T04:26:36.791Z,5.45
2022-12-31T04:29:03.362Z,6.03
2022-12-31T04:31:29.999Z,5.55
2022-12-31T04:33:56.439Z,8.45
2022-12-31T04:36:22.945Z,6.07
2022-12-31T04:38:49.319Z,5.90
2022-12-31T04:41:18.737Z,5.35
2022-12-31T04:43:50.814Z,7.00
2022-12-31T04:46:23.487Z,5.30
2022-12-31T04:48:50.605Z,5.28
2022-12-31T04:51:17.137Z,6.05
2022-12-31T04:53:43.536Z,5.32
2022-12-31T04:56:10.028Z,7.00
2022-12-31T04:58:37.278Z,7.43
2022-12-31T05:01:04.373Z,5.30
2022-12-31T05:03:31.042Z,5.28
2022-12-31T05:06:06.209Z,5.60
2022-12-31T05:08:32.644Z,5.43
2022-12-31T05:10:59.261Z,4.97
2022-12-31T05:13:32.786Z,5.38
2022-12-31T05:15:59.747Z,6.70
2022-12-31T05:18:26.264Z,5.78
2022-12-31T05:20:52.631Z,8.90
2022-12-31T05:23:19.108Z,6.43
2022-12-31T05:25:46.813Z,5.53
2022-12-31T05:28:13.701Z,6.03
2022-12-31T05:30:40.505Z,6.25
2022-12-31T05:33:06.933Z,7.97
2022-12-31T05:35:33.445Z,9.55
2022-12-31T05:38:00.517Z,6.75
2022-12-31T05:40:28.058Z,9.75
2022-12-31T05:42:54.475Z,6.97
2022-12-31T05:45:26.784Z,6.25
2022-12-31T05:47:56.777Z,6.10
2022-12-31T05:50:23.164Z,5.85
2022-12-31T05:52:49.578Z,8.75
2022-12-31T05:55:16.190Z,6.60
2022-12-31T05:57:42.606Z,6.22
2022-12-31T06:00:10.130Z,6.13
2022-12-31T06:02:36.571Z,8.20
2022-12-31T06:05:02.986Z,6.80
2022-12-31T06:07:29.396Z,6.20
2022-12-31T06:09:55.819Z,6.00
2022-12-31T06:12:22.285Z,7.03
2022-12-31T06:14:48.708Z,5.60
2022-12-31T06:17:15.096Z,5.40
2022-12-31T06:19:41.486Z,6.18
2022-12-31T06:22:07.931Z,5.50
2022-12-31T06:24:34.371Z,6.00
2022-12-31T06:27:00.841Z,5.28
2022-12-31T06:29:27.223Z,4.72
2022-12-31T06:31:53.582Z,4.03
2022-12-31T06:34:19.952Z,4.72
2022-12-31T06:36:46.339Z,3.65
2022-12-31T06:39:12.854Z,3.63
2022-12-31T06:41:39.305Z,3.50
2022-12-31T06:44:06.041Z,3.63
2022-12-31T06:46:32.502Z,3.60
2022-12-31T06:48:58.996Z,3.42
2022-12-31T06:51:25.629Z,3.60
2022-12-31T06:53:52.278Z,4.18
2022-12-31T06:56:31.203Z,4.72
2022-12-31T06:59:00.617Z,5.22
2022-12-31T07:02:02.027Z,4.25
2022-12-31T07:04:46.751Z,5.38
2022-12-31T07:07:22.045Z,6.65
2022-12-31T07:09:55.786Z,5.65
2022-12-31T07:13:04.034Z,5.90
2022-12-31T07:15:36.429Z,5.97
2022-12-31T07:18:44.177Z,4.75
2022-12-31T07:21:13.551Z,5.28
2022-12-31T07:23:41.370Z,4.50
2022-12-31T07:26:17.515Z,3.85
2022-12-31T07:29:29.613Z,4.45
2022-12-31T07:32:05.111Z,3.55
2022-12-31T07:35:08.857Z,3.70
2022-12-31T07:37:46.407Z,3.28
2022-12-31T07:40:37.177Z,3.67
2022-12-31T07:43:25.612Z,2.72
2022-12-31T07:48:31.236Z,2.90
2022-12-31T07:50:58.179Z,4.85
2022-12-31T07:53:25.247Z,2.60
2022-12-31T07:56:00.578Z,1.95
2022-12-31T07:58:33.025Z,1.92
2022-12-31T08:01:00.256Z,1.40
2022-12-31T08:04:18.122Z,1.55
2022-12-31T08:06:56.529Z,1.70
2022-12-31T08:09:32.946Z,2.78
2022-12-31T08:12:01.089Z,1.60
2022-12-31T08:14:29.004Z,2.20
2022-12-31T08:16:56.503Z,1.35
2022-12-31T08:19:31.321Z,1.77
2022-12-31T08:22:10.352Z,2.38
2022-12-31T08:24:58.541Z,1.75
2022-12-31T08:27:55.496Z,2.88
2022-12-31T08:30:23.618Z,2.85
2022-12-31T08:33:03.071Z,3.13
2022-12-31T08:35:51.300Z,2.00
2022-12-31T08:38:32.916Z,2.58
2022-12-31T08:41:15.355Z,1.67
2022-12-31T08:43:59.861Z,2.42
2022-12-31T08:46:30.514Z,2.65
2022-12-31T08:48:57.252Z,2.00
2022-12-31T08:51:25.682Z,2.78
2022-12-31T08:53:53.366Z,1.55
2022-12-31T08:56:32.785Z,2.63
2022-12-31T08:59:26.864Z,1.45
2022-12-31T09:02:02.335Z,4.93
2022-12-31T09:05:07.269Z,5.63
2022-12-31T09:07:39.835Z,5.30
2022-12-31T09:10:18.937Z,5.15
2022-12-31T09:12:47.634Z,5.90
2022-12-31T09:15:21.579Z,5.90
2022-12-31T09:17:50.322Z,6.13
2022-12-31T09:20:44.988Z,6.53
2022-12-31T09:23:12.614Z,6.13
2022-12-31T09:25:47.199Z,6.80
2022-12-31T09:28:43.166Z,5.85
2022-12-31T09:31:21.248Z,6.28
2022-12-31T09:33:52.685Z,5.90
2022-12-31T09:36:45.926Z,7.18
2022-12-31T09:39:41.160Z,8.27
2022-12-31T09:42:35.153Z,5.68
2022-12-31T09:45:07.864Z,6.07
2022-12-31T09:47:56.031Z,5.97
2022-12-31T09:50:23.706Z,6.40
2022-12-31T09:53:22.243Z,6.05
2022-12-31T09:55:51.959Z,6.40
2022-12-31T09:58:32.633Z,6.25
2022-12-31T10:01:07.480Z,5.57
2022-12-31T10:03:37.358Z,5.45
2022-12-31T10:08:52.007Z,5.60
2022-12-31T10:11:44.732Z,6.13
2022-12-31T10:14:17.223Z,6.03
2022-12-31T10:16:53.213Z,5.57
2022-12-31T10:22:40.438Z,5.75
2022-12-31T10:25:38.943Z,6.93
2022-12-31T10:28:30.797Z,5.72
2022-12-31T10:31:25.134Z,5.45
2022-12-31T10:33:57.343Z,8.73
2022-12-31T10:37:03.642Z,7.15
2022-12-31T10:39:51.835Z,7.70
2022-12-31T10:42:40.053Z,7.05
2022-12-31T10:45:44.322Z,6.72
2022-12-31T10:48:47.802Z,5.68
2022-12-31T10:51:25.006Z,8.82
2022-12-31T10:54:45.521Z,7.88
2022-12-31T10:57:34.990Z,7.90
2022-12-31T11:00:11.620Z,7.10
2022-12-31T11:02:38.109Z,10.02
2022-12-31T11:05:31.801Z,6.78
2022-12-31T11:08:25.868Z,7.28
2022-12-31T11:11:12.741Z,5.85
2022-12-31T11:14:00.930Z,7.80
2022-12-31T11:17:00.143Z,5.57
2022-12-31T11:19:38.485Z,5.47
2022-12-31T11:22:42.905Z,6.43
2022-12-31T11:25:12.696Z,7.43
2022-12-31T11:30:56.109Z,7.45
2022-12-31T11:33:28.435Z,6.65
2022-12-31T11:36:25.621Z,6.38
2022-12-31T11:38:58.471Z,6.43
2022-12-31T11:41:39.896Z,6.05
2022-12-31T11:44:21.047Z,6.88
2022-12-31T11:46:57.925Z,7.03
2022-12-31T11:49:46.024Z,7.45
2022-12-31T11:52:45.198Z,8.10
2022-12-31T11:55:23.337Z,7.28
2022-12-31T11:57:51.434Z,6.25
2022-12-31T12:00:23.671Z,6.68
2022-12-31T12:02:58.776Z,6.20
2022-12-31T12:05:25.911Z,6.45
2022-12-31T12:07:53.190Z,8.65
2022-12-31T12:10:25.990Z,7.13
2022-12-31T12:12:56.964Z,8.23
2022-12-31T12:15:26.597Z,9.73
2022-12-31T12:17:55.233Z,7.57
2022-12-31T12:20:29.044Z,6.25
2022-12-31T12:22:57.192Z,6.55
2022-12-31T12:25:36.854Z,9.18
2022-12-31T12:28:18.588Z,6.35
2022-12-31T12:30:54.956Z,5.88
2022-12-31T12:33:21.806Z,6.53
2022-12-31T12:35:48.363Z,5.88
2022-12-31T12:38:19.801Z,6.95
2022-12-31T12:41:00.977Z,6.82
2022-12-31T12:43:32.587Z,6.15
2022-12-31T12:46:01.311Z,5.95
2022-12-31T12:48:40.959Z,7.97
2022-12-31T12:51:20.152Z,8.38
2022-12-31T12:54:24.012Z,5.40
2022-12-31T12:57:10.480Z,7.10
2022-12-31T12:59:58.384Z,7.38
2022-12-31T13:02:55.905Z,6.35
2022-12-31T13:05:34.365Z,7.72
2022-12-31T13:08:09.827Z,7.80
2022-12-31T13:10:42.285Z,7.80
2022-12-31T13:13:45.845Z,6.38
2022-12-31T13:16:17.087Z,6.45
2022-12-31T13:18:43.454Z,6.72
2022-12-31T13:21:50.513Z,6.60
2022-12-31T13:25:06.424Z,6.80
2022-12-31T13:27:39.629Z,6.20
2022-12-31T13:30:36.705Z,5.55
2022-12-31T13:33:14.294Z,5.60
2022-12-31T13:35:45.933Z,5.78
2022-12-31T13:38:25.642Z,8.40
2022-12-31T13:41:05.312Z,6.70
2022-12-31T13:43:35.052Z,5.75
2022-12-31T13:48:36.138Z,8.98
2022-12-31T13:51:19.073Z,7.70
2022-12-31T13:53:53.685Z,8.68
2022-12-31T13:56:24.737Z,5.57
2022-12-31T13:59:05.495Z,5.65
2022-12-31T14:01:42.527Z,7.68
2022-12-31T14:04:30.128Z,7.50
2022-12-31T14:07:00.016Z,6.63
2022-12-31T14:09:29.009Z,5.93
2022-12-31T14:12:17.845Z,8.57
2022-12-31T14:15:08.192Z,7.88
2022-12-31T14:18:08.809Z,8.07
2022-12-31T14:20:48.258Z,7.22
2022-12-31T14:23:27.045Z,6.65
2022-12-31T14:25:58.743Z,6.80
2022-12-31T14:28:31.531Z,5.57
2022-12-31T14:31:05.277Z,7.40
2022-12-31T14:33:43.043Z,7.40
2022-12-31T14:36:28.000Z,7.43
2022-12-31T14:39:16.466Z,7.13
2022-12-31T14:42:03.537Z,9.45
2022-12-31T14:44:40.823Z,5.60
2022-12-31T14:47:40.677Z,9.95
2022-12-31T14:50:13.369Z,8.88
2022-12-31T14:53:06.525Z,8.65
2022-12-31T14:55:34.927Z,5.70
2022-12-31T15:01:08.513Z,6.50
2022-12-31T15:03:45.524Z,9.60
2022-12-31T15:06:32.780Z,6.72
2022-12-31T15:09:17.415Z,7.65
2022-12-31T15:11:46.710Z,9.05
2022-12-31T15:14:26.380Z,9.70
2022-12-31T15:17:17.836Z,6.57
2022-12-31T15:19:59.537Z,6.40
2022-12-31T15:22:49.318Z,9.18
2022-12-31T15:25:41.494Z,7.65
2022-12-31T15:28:50.573Z,9.88
2022-12-31T15:31:19.606Z,9.93
2022-12-31T15:34:07.305Z,9.38
2022-12-31T15:36:35.902Z,11.35
2022-12-31T15:39:11.482Z,10.75
2022-12-31T15:42:02.966Z,12.38
2022-12-31T15:44:31.539Z,8.95
2022-12-31T15:47:03.053Z,10.38
2022-12-31T15:49:36.473Z,12.30
2022-12-31T15:52:20.801Z,8.45
2022-12-31T15:54:51.738Z,12.63
2022-12-31T15:57:30.215Z,10.73
2022-12-31T15:59:59.509Z,12.98
2022-12-31T16:02:27.796Z,11.80
2022-12-31T16:04:54.990Z,11.90
2022-12-31T16:07:22.353Z,11.75
2022-12-31T16:09:57.319Z,11.25
2022-12-31T16:12:32.471Z,10.32
2022-12-31T16:15:00.135Z,9.60
2022-12-31T16:17:34.115Z,12.20
2022-12-31T16:20:02.250Z,10.13
2022-12-31T16:22:39.428Z,10.15
2022-12-31T16:27:54.128Z,7.18
2022-12-31T16:30:26.482Z,9.55
2022-12-31T16:32:54.136Z,10.35
2022-12-31T16:35:32.377Z,11.77
2022-12-31T16:38:08.085Z,11.95
2022-12-31T16:40:34.900Z,12.23
2022-12-31T16:43:01.563Z,7.28
2022-12-31T16:45:34.734Z,9.60
2022-12-31T16:48:12.806Z,8.30
2022-12-31T16:50:49.664Z,9.95
2022-12-31T16:53:18.714Z,12.05
2022-12-31T16:55:54.988Z,10.20
2022-12-31T16:58:28.234Z,14.00
2022-12-31T17:00:56.011Z,7.78
2022-12-31T17:03:23.826Z,10.20
2022-12-31T17:05:55.133Z,10.73
2022-12-31T17:08:27.624Z,10.88
2022-12-31T17:10:54.190Z,8.85
2022-12-31T17:13:29.576Z,9.52
2022-12-31T17:18:26.445Z,11.18
2022-12-31T17:20:54.572Z,14.68
2022-12-31T17:23:31.926Z,9.23
2022-12-31T17:26:00.719Z,10.50
2022-12-31T17:28:28.004Z,11.68
2022-12-31T17:30:59.878Z,9.70
2022-12-31T17:33:28.665Z,8.68
2022-12-31T17:35:57.313Z,8.77
2022-12-31T17:38:23.649Z,11.05
2022-12-31T17:40:52.511Z,8.73
2022-12-31T17:43:20.661Z,8.95
2022-12-31T17:45:47.858Z,10.25
2022-12-31T17:48:16.020Z,10.07
2022-12-31T17:50:49.902Z,10.98
2022-12-31T17:53:17.056Z,10.63
2022-12-31T17:55:45.800Z,7.72
2022-12-31T17:58:26.099Z,9.82
2022-12-31T18:00:56.823Z,8.93
2022-12-31T18:03:23.347Z,9.15
2022-12-31T18:05:49.760Z,7.90
2022-12-31T18:08:16.130Z,11.45
2022-12-31T18:10:43.505Z,8.30
2022-12-31T18:13:19.125Z,6.28
2022-12-31T18:15:45.853Z,11.55
2022-12-31T18:18:24.722Z,8.98
2022-12-31T18:20:57.661Z,10.13
2022-12-31T18:23:26.789Z,8.95
2022-12-31T18:25:53.513Z,11.38
2022-12-31T18:28:19.969Z,11.13
2022-12-31T18:30:46.848Z,8.20
2022-12-31T18:33:16.789Z,9.75
2022-12-31T18:36:10.449Z,9.90
2022-12-31T18:38:31.472Z,10.77
2022-12-31T18:40:59.319Z,8.85
2022-12-31T18:43:25.925Z,10.95
2022-12-31T18:45:53.050Z,10.68
2022-12-31T18:48:19.606Z,8.02
2022-12-31T18:50:47.039Z,8.70
2022-12-31T18:53:18.975Z,9.27
2022-12-31T18:55:47.977Z,12.88
2022-12-31T18:58:15.753Z,10.77
2022-12-31T19:00:42.890Z,11.00
2022-12-31T19:03:22.633Z,21.73
2022-12-31T19:05:52.255Z,11.60
2022-12-31T19:08:19.812Z,7.05
2022-12-31T19:10:47.208Z,17.10
2022-12-31T19:13:15.064Z,13.70
2022-12-31T19:15:52.087Z,10.25
2022-12-31T19:18:18.989Z,13.57
2022-12-31T19:20:45.482Z,9.35
2022-12-31T19:23:17.916Z,8.88
2022-12-31T19:25:45.102Z,12.77
2022-12-31T19:28:17.377Z,11.55
2022-12-31T19:30:43.945Z,9.48
2022-12-31T19:33:10.682Z,9.55
2022-12-31T19:35:38.269Z,10.43
2022-12-31T19:38:06.152Z,11.15
2022-12-31T19:40:32.529Z,9.68
2022-12-31T19:42:58.956Z,9.30
2022-12-31T19:45:28.905Z,10.00
2022-12-31T19:47:56.491Z,10.73
2022-12-31T19:50:26.133Z,10.68
2022-12-31T19:52:55.137Z,10.20
2022-12-31T19:55:25.017Z,10.32
2022-12-31T19:57:52.331Z,9.68
2022-12-31T20:00:19.773Z,10.27
2022-12-31T20:02:47.935Z,11.10
2022-12-31T20:05:15.940Z,8.38
2022-12-31T20:07:42.385Z,15.95
2022-12-31T20:10:10.761Z,10.27
2022-12-31T20:12:42.326Z,9.18
2022-12-31T20:15:10.890Z,8.90
2022-12-31T20:17:37.327Z,13.50
2022-12-31T20:20:04.961Z,6.97
2022-12-31T20:22:31.426Z,7.28
2022-12-31T20:24:58.163Z,10.88
2022-12-31T20:27:24.607Z,8.65
2022-12-31T20:29:51.037Z,7.10
2022-12-31T20:32:17.496Z,13.70
2022-12-31T20:34:43.915Z,9.77
2022-12-31T20:37:10.341Z,13.02
2022-12-31T20:39:37.220Z,8.23
2022-12-31T20:42:03.878Z,8.38
2022-12-31T20:44:30.406Z,10.40
2022-12-31T20:46:56.768Z,8.70
2022-12-31T20:49:37.526Z,12.15
2022-12-31T20:52:09.665Z,12.50
2022-12-31T20:54:37.202Z,10.88
2022-12-31T20:57:03.661Z,9.85
2022-12-31T20:59:30.092Z,12.38
2022-12-31T21:02:20.616Z,11.90
2022-12-31T21:04:45.172Z,12.48
2022-12-31T21:07:11.698Z,9.15
2022-12-31T21:09:38.115Z,8.93
2022-12-31T21:12:23.074Z,9.50
2022-12-31T21:14:49.454Z,9.00
2022-12-31T21:17:15.836Z,10.65
2022-12-31T21:19:42.328Z,11.40
2022-12-31T21:22:08.765Z,8.27
2022-12-31T21:24:35.239Z,12.82
2022-12-31T21:27:01.661Z,11.52
2022-12-31T21:29:32.783Z,9.13
2022-12-31T21:32:01.056Z,12.38
2022-12-31T21:34:27.493Z,9.13
2022-12-31T21:36:53.973Z,6.40
2022-12-31T21:39:20.417Z,13.63
2022-12-31T21:41:52.752Z,10.75
2022-12-31T21:44:23.877Z,12.48
2022-12-31T21:47:34.859Z,11.15
2022-12-31T21:50:01.990Z,10.68
2022-12-31T21:52:33.402Z,10.93
2022-12-31T21:55:19.734Z,11.60
2022-12-31T21:58:24.210Z,7.93
2022-12-31T22:00:53.372Z,12.15
2022-12-31T22:03:27.433Z,16.33
2022-12-31T22:06:00.735Z,12.43
2022-12-31T22:08:28.501Z,9.45
2022-12-31T22:10:56.569Z,8.43
2022-12-31T22:13:23.068Z,8.82
2022-12-31T22:15:58.733Z,12.50
2022-12-31T22:18:28.573Z,10.77
2022-12-31T22:21:07.674Z,10.23
2022-12-31T22:23:36.820Z,7.60
2022-12-31T22:26:04.372Z,11.15
2022-12-31T22:28:39.754Z,11.45
2022-12-31T22:31:07.888Z,11.38
2022-12-31T22:33:34.373Z,11.18
2022-12-31T22:36:07.320Z,12.52
2022-12-31T22:38:34.453Z,9.02
2022-12-31T22:41:08.717Z,13.50
2022-12-31T22:43:37.003Z,10.63
2022-12-31T22:46:14.863Z,10.23
2022-12-31T22:48:41.890Z,11.82
2022-12-31T22:51:09.001Z,12.52
2022-12-31T22:53:35.897Z,13.30
2022-12-31T22:56:02.956Z,12.23
2022-12-31T22:58:29.511Z,11.52
2022-12-31T23:00:55.944Z,11.13
2022-12-31T23:03:22.550Z,10.90
2022-12-31T23:05:51.582Z,33.67
2022-12-31T23:08:23.145Z,24.17
2022-12-31T23:11:01.278Z,33.85
2022-12-31T23:14:04.708Z,29.98
2022-12-31T23:16:49.339Z,94.93
2022-12-31T23:19:34.821Z,19.73
2022-12-31T23:22:19.751Z,59.85
2022-12-31T23:24:46.159Z,30.67
2022-12-31T23:27:12.590Z,77.82
2022-12-31T23:29:46.258Z,29.45
2022-12-31T23:32:15.143Z,29.63
2022-12-31T23:34:42.759Z,32.75
2022-12-31T23:37:09.270Z,33.50
2022-12-31T23:39:35.872Z,32.03
2022-12-31T23:42:02.313Z,35.97
2022-12-31T23:44:28.811Z,32.33
2022-12-31T23:46:55.415Z,33.28
2022-12-31T23:49:21.908Z,26.60
2022-12-31T23:51:48.383Z,25.05
2022-12-31T23:54:15.782Z,20.40
2022-12-31T23:56:42.290Z,24.45
2022-12-31T23:59:09.828Z,24.15
